createdAt,value
2017-11-19T00:01:35.625Z,1.60
2017-11-19T00:04:03.221Z,1.70
2017-11-19T00:06:30.785Z,1.60
2017-11-19T00:08:59.118Z,1.60
2017-11-19T00:11:26.703Z,1.60
2017-11-19T00:13:54.269Z,1.60
2017-11-19T00:16:22.617Z,1.40
2017-11-19T00:18:50.188Z,1.40
2017-11-19T00:21:17.781Z,1.40
2017-11-19T00:23:45.346Z,1.40
2017-11-19T00:26:12.997Z,1.40
2017-11-19T00:28:40.562Z,1.30
2017-11-19T00:31:08.185Z,1.40
2017-11-19T00:33:35.790Z,1.30
2017-11-19T00:36:03.354Z,1.30
2017-11-19T00:38:31.716Z,1.30
2017-11-19T00:40:59.273Z,1.30
2017-11-19T00:43:28.237Z,1.30
2017-11-19T00:45:55.822Z,1.30
2017-11-19T00:48:23.496Z,1.30
2017-11-19T00:50:51.838Z,1.30
2017-11-19T00:53:19.441Z,1.30
2017-11-19T00:55:47.033Z,1.30
2017-11-19T00:58:14.629Z,1.30
2017-11-19T01:00:42.223Z,1.30
2017-11-19T01:03:09.788Z,1.20
2017-11-19T01:05:37.414Z,1.20
2017-11-19T01:08:04.977Z,1.20
2017-11-19T01:10:35.021Z,1.00
2017-11-19T01:13:02.684Z,1.00
2017-11-19T01:15:30.250Z,1.00
2017-11-19T01:17:57.833Z,1.00
2017-11-19T01:20:26.165Z,0.90
2017-11-19T01:22:53.757Z,0.90
2017-11-19T01:25:22.089Z,0.80
2017-11-19T01:27:49.672Z,0.70
2017-11-19T01:30:17.229Z,0.70
2017-11-19T01:32:44.823Z,0.70
2017-11-19T01:35:13.153Z,0.80
2017-11-19T01:37:40.737Z,0.80
2017-11-19T01:40:08.297Z,0.80
2017-11-19T01:42:35.973Z,0.80
2017-11-19T01:45:03.638Z,0.70
2017-11-19T01:47:31.978Z,0.70
2017-11-19T01:49:59.576Z,0.60
2017-11-19T01:52:28.669Z,0.70
2017-11-19T01:54:56.257Z,0.70
2017-11-19T01:57:23.832Z,0.70
2017-11-19T01:59:51.433Z,0.70
2017-11-19T02:02:31.050Z,0.70
2017-11-19T02:04:58.653Z,0.70
2017-11-19T02:07:26.217Z,0.80
2017-11-19T02:09:53.860Z,0.70
2017-11-19T02:12:22.528Z,0.70
2017-11-19T02:14:50.395Z,0.60
2017-11-19T02:17:17.997Z,0.70
2017-11-19T02:19:47.060Z,0.70
2017-11-19T02:22:14.645Z,0.70
2017-11-19T02:24:42.218Z,0.70
2017-11-19T02:27:09.804Z,0.80
2017-11-19T02:29:38.542Z,0.80
2017-11-19T02:32:06.260Z,0.70
2017-11-19T02:34:33.899Z,0.80
2017-11-19T02:37:02.685Z,0.90
2017-11-19T02:39:31.018Z,1.00
2017-11-19T02:41:58.583Z,1.00
2017-11-19T02:44:26.185Z,1.10
2017-11-19T02:46:53.754Z,1.10
2017-11-19T02:49:22.218Z,1.10
2017-11-19T02:51:49.798Z,1.10
2017-11-19T02:54:18.160Z,1.00
2017-11-19T02:56:45.730Z,1.00
2017-11-19T02:59:14.088Z,1.00
2017-11-19T03:01:41.662Z,1.00
2017-11-19T03:04:09.261Z,1.00
2017-11-19T03:06:37.747Z,1.00
2017-11-19T03:09:05.324Z,0.90
2017-11-19T03:11:32.928Z,0.90
2017-11-19T03:14:01.286Z,1.00
2017-11-19T03:16:28.849Z,1.00
2017-11-19T03:18:56.433Z,1.00
2017-11-19T03:21:24.766Z,1.10
2017-11-19T03:23:52.649Z,1.10
2017-11-19T03:26:20.213Z,1.10
2017-11-19T03:28:47.813Z,1.20
2017-11-19T03:31:16.154Z,1.30
2017-11-19T03:33:43.735Z,1.20
2017-11-19T03:36:11.329Z,1.20
2017-11-19T03:38:38.911Z,1.20
2017-11-19T03:41:06.500Z,1.20
2017-11-19T03:43:35.748Z,1.10
2017-11-19T03:46:03.481Z,1.10
2017-11-19T03:48:31.042Z,1.10
2017-11-19T03:50:58.710Z,1.00
2017-11-19T03:53:26.297Z,1.00
2017-11-19T03:55:53.857Z,1.00
2017-11-19T03:58:21.433Z,1.00
2017-11-19T04:00:49.028Z,0.90
2017-11-19T04:03:16.612Z,0.90
2017-11-19T04:05:44.209Z,0.90
2017-11-19T04:08:11.797Z,0.80
2017-11-19T04:10:39.360Z,0.80
2017-11-19T04:13:07.054Z,0.80
2017-11-19T04:15:35.810Z,0.70
2017-11-19T04:18:03.406Z,0.70
2017-11-19T04:20:31.073Z,0.70
2017-11-19T04:22:59.414Z,0.70
2017-11-19T04:25:27.002Z,0.60
2017-11-19T04:27:54.568Z,0.70
2017-11-19T04:30:22.921Z,0.70
2017-11-19T04:32:50.494Z,0.60
2017-11-19T04:35:18.077Z,0.70
2017-11-19T04:37:46.414Z,0.60
2017-11-19T04:40:14.001Z,0.60
2017-11-19T04:42:41.570Z,0.70
2017-11-19T04:45:09.157Z,0.70
2017-11-19T04:47:37.926Z,0.70
2017-11-19T04:50:06.282Z,0.70
2017-11-19T04:52:33.858Z,0.70
2017-11-19T04:55:01.460Z,0.70
2017-11-19T04:57:29.025Z,0.70
2017-11-19T04:59:56.872Z,0.80
2017-11-19T05:02:25.229Z,0.80
2017-11-19T05:04:53.562Z,0.80
2017-11-19T05:07:21.165Z,0.80
2017-11-19T05:09:49.505Z,0.80
2017-11-19T05:12:17.089Z,0.80
2017-11-19T05:14:44.685Z,0.80
2017-11-19T05:17:13.141Z,0.90
2017-11-19T05:19:40.710Z,0.80
2017-11-19T05:22:08.365Z,0.90
2017-11-19T05:24:36.861Z,0.90
2017-11-19T05:27:05.215Z,0.80
2017-11-19T05:29:32.790Z,0.80
2017-11-19T05:32:00.386Z,0.80
2017-11-19T05:34:27.945Z,0.80
2017-11-19T05:36:55.513Z,0.80
2017-11-19T05:39:23.101Z,0.80
2017-11-19T05:41:50.696Z,0.80
2017-11-19T05:44:18.283Z,0.80
2017-11-19T05:46:45.853Z,0.80
2017-11-19T05:49:13.441Z,0.80
2017-11-19T05:51:41.009Z,0.90
2017-11-19T05:54:08.601Z,0.90
2017-11-19T05:56:38.581Z,1.00
2017-11-19T05:59:06.149Z,1.00
2017-11-19T06:01:33.737Z,1.00
2017-11-19T06:04:01.331Z,1.00
2017-11-19T06:06:28.921Z,0.90
2017-11-19T06:08:56.486Z,0.90
2017-11-19T06:11:24.082Z,0.90
2017-11-19T06:13:51.925Z,1.00
2017-11-19T06:16:19.513Z,1.00
2017-11-19T06:18:47.866Z,1.10
2017-11-19T06:21:15.462Z,1.10
2017-11-19T06:23:43.802Z,1.20
2017-11-19T06:26:11.554Z,1.20
2017-11-19T06:28:39.121Z,1.20
2017-11-19T06:31:06.682Z,1.20
2017-11-19T06:33:35.021Z,1.20
2017-11-19T06:36:03.374Z,1.20
2017-11-19T06:38:31.735Z,1.20
2017-11-19T06:40:59.310Z,1.20
2017-11-19T06:43:26.970Z,1.30
2017-11-19T06:45:54.533Z,1.30
2017-11-19T06:48:22.125Z,1.30
2017-11-19T06:50:49.688Z,1.30
2017-11-19T06:53:17.275Z,1.30
2017-11-19T06:55:44.839Z,1.30
2017-11-19T06:58:12.425Z,1.40
2017-11-19T07:00:39.993Z,1.50
2017-11-19T07:03:07.664Z,1.50
2017-11-19T07:05:36.717Z,1.60
2017-11-19T07:08:04.518Z,1.60
2017-11-19T07:10:32.855Z,1.70
2017-11-19T07:13:00.461Z,1.60
2017-11-19T07:15:28.049Z,1.70
2017-11-19T07:17:56.376Z,1.80
2017-11-19T07:20:23.965Z,1.80
2017-11-19T07:22:51.529Z,1.80
2017-11-19T07:25:19.117Z,1.80
2017-11-19T07:27:46.681Z,1.80
2017-11-19T07:30:14.272Z,1.80
2017-11-19T07:32:41.832Z,1.80
2017-11-19T07:35:09.629Z,1.90
2017-11-19T07:37:39.458Z,1.90
2017-11-19T07:40:07.821Z,2.00
2017-11-19T07:42:36.986Z,2.00
2017-11-19T07:45:04.549Z,2.00
2017-11-19T07:47:32.132Z,2.10
2017-11-19T07:49:59.698Z,2.00
2017-11-19T07:52:27.299Z,2.10
2017-11-19T07:54:54.860Z,2.10
2017-11-19T07:57:22.456Z,2.10
2017-11-19T07:59:50.022Z,2.10
2017-11-19T08:02:17.709Z,2.10
2017-11-19T08:04:45.270Z,2.20
2017-11-19T08:07:12.956Z,2.20
2017-11-19T08:09:40.530Z,2.30
2017-11-19T08:12:08.097Z,2.40
2017-11-19T08:14:37.091Z,2.50
2017-11-19T08:17:04.653Z,2.90
2017-11-19T08:19:32.246Z,3.50
2017-11-19T08:21:59.818Z,4.40
2017-11-19T08:24:27.408Z,4.80
2017-11-19T08:26:55.733Z,4.40
2017-11-19T08:29:23.318Z,4.40
2017-11-19T08:31:50.888Z,4.10
2017-11-19T08:34:18.481Z,4.70
2017-11-19T08:36:46.813Z,4.60
2017-11-19T08:39:14.397Z,4.60
2017-11-19T08:41:43.466Z,3.70
2017-11-19T08:44:11.065Z,3.70
2017-11-19T08:46:39.410Z,3.40
2017-11-19T08:49:06.968Z,3.40
2017-11-19T08:51:36.013Z,3.70
2017-11-19T08:54:04.345Z,4.60
2017-11-19T08:56:32.027Z,4.60
2017-11-19T08:59:00.366Z,5.80
2017-11-19T09:01:28.036Z,5.80
2017-11-19T09:03:55.605Z,5.30
2017-11-19T09:06:23.989Z,5.10
2017-11-19T09:08:51.556Z,5.10
2017-11-19T09:11:19.137Z,5.10
2017-11-19T09:13:47.490Z,5.10
2017-11-19T09:16:15.050Z,5.10
2017-11-19T09:18:42.634Z,5.00
2017-11-19T09:21:10.966Z,6.00
2017-11-19T09:23:38.558Z,6.00
2017-11-19T09:26:06.124Z,5.30
2017-11-19T09:28:33.690Z,5.00
2017-11-19T09:31:01.281Z,4.70
2017-11-19T09:33:28.845Z,4.80
2017-11-19T09:35:56.433Z,4.90
2017-11-19T09:38:23.992Z,4.80
2017-11-19T09:40:51.577Z,4.50
2017-11-19T09:43:19.138Z,4.20
2017-11-19T09:45:46.726Z,4.10
2017-11-19T09:48:15.057Z,4.10
2017-11-19T09:50:42.653Z,4.10
2017-11-19T09:53:10.218Z,4.40
2017-11-19T09:55:37.977Z,4.60
2017-11-19T09:58:05.541Z,4.50
2017-11-19T10:00:33.102Z,4.40
2017-11-19T10:03:01.466Z,4.50
2017-11-19T10:05:29.033Z,4.50
2017-11-19T10:07:56.628Z,4.60
2017-11-19T10:10:24.954Z,6.90
2017-11-19T10:12:52.546Z,6.80
2017-11-19T10:15:20.918Z,8.30
2017-11-19T10:17:49.290Z,8.60
2017-11-19T10:20:17.628Z,7.80
2017-11-19T10:22:45.222Z,7.80
2017-11-19T10:25:12.786Z,6.70
2017-11-19T10:27:40.376Z,6.10
2017-11-19T10:30:08.705Z,5.20
2017-11-19T10:32:37.857Z,5.10
2017-11-19T10:35:06.185Z,4.80
2017-11-19T10:37:33.773Z,4.80
2017-11-19T10:40:01.333Z,4.70
2017-11-19T10:42:28.942Z,4.60
2017-11-19T10:44:56.510Z,4.60
2017-11-19T10:47:24.073Z,4.70
2017-11-19T10:49:51.661Z,4.70
2017-11-19T10:52:19.235Z,4.70
2017-11-19T10:54:47.601Z,5.40
2017-11-19T10:57:15.161Z,5.40
2017-11-19T10:59:42.953Z,5.30
2017-11-19T11:02:11.278Z,5.20
2017-11-19T11:04:38.880Z,5.10
2017-11-19T11:07:07.974Z,4.80
2017-11-19T11:09:36.769Z,4.80
2017-11-19T11:12:04.353Z,4.80
2017-11-19T11:14:33.413Z,4.80
2017-11-19T11:17:01.016Z,4.70
2017-11-19T11:19:28.595Z,4.90
2017-11-19T11:21:56.218Z,5.10
2017-11-19T11:24:23.805Z,5.30
2017-11-19T11:26:51.369Z,5.20
2017-11-19T11:29:18.974Z,5.30
2017-11-19T11:31:46.544Z,5.40
2017-11-19T11:34:14.105Z,5.80
2017-11-19T11:36:41.690Z,5.70
2017-11-19T11:39:10.022Z,5.60
2017-11-19T11:41:38.605Z,5.60
2017-11-19T11:44:06.163Z,5.60
2017-11-19T11:46:33.753Z,5.50
2017-11-19T11:49:01.321Z,5.60
2017-11-19T11:51:30.417Z,5.50
2017-11-19T11:53:57.994Z,5.60
2017-11-19T11:56:26.350Z,5.40
2017-11-19T11:58:53.913Z,5.40
2017-11-19T12:01:21.930Z,5.50
2017-11-19T12:03:49.490Z,5.60
2017-11-19T12:06:17.398Z,5.60
2017-11-19T12:08:44.985Z,5.60
2017-11-19T12:11:13.315Z,5.50
2017-11-19T12:13:41.942Z,5.50
2017-11-19T12:16:09.509Z,5.50
2017-11-19T12:18:38.796Z,5.30
2017-11-19T12:21:07.861Z,5.20
2017-11-19T12:23:35.897Z,5.30
2017-11-19T12:28:37.989Z,5.20
2017-11-19T12:31:05.613Z,5.40
2017-11-19T12:33:33.942Z,6.10
2017-11-19T12:36:01.534Z,6.10
2017-11-19T12:38:29.117Z,6.10
2017-11-19T12:40:56.711Z,6.00
2017-11-19T12:43:24.277Z,5.70
2017-11-19T12:45:51.861Z,5.60
2017-11-19T12:48:19.426Z,5.60
2017-11-19T12:50:47.030Z,5.70
2017-11-19T12:53:15.358Z,5.90
2017-11-19T12:55:42.926Z,5.90
2017-11-19T12:58:10.518Z,5.90
2017-11-19T13:00:38.088Z,5.80
2017-11-19T13:03:05.673Z,5.70
2017-11-19T13:05:33.233Z,5.60
2017-11-19T13:08:00.826Z,5.70
2017-11-19T13:10:28.390Z,5.70
2017-11-19T13:12:55.981Z,5.80
2017-11-19T13:15:23.541Z,6.00
2017-11-19T13:17:51.125Z,6.20
2017-11-19T13:20:19.467Z,6.20
2017-11-19T13:22:47.145Z,6.20
2017-11-19T13:25:14.713Z,6.20
2017-11-19T13:27:43.068Z,6.00
2017-11-19T13:30:10.629Z,5.90
2017-11-19T13:32:38.214Z,5.90
2017-11-19T13:35:06.565Z,5.60
2017-11-19T13:37:35.049Z,5.60
2017-11-19T13:40:02.834Z,5.60
2017-11-19T13:42:30.401Z,5.60
2017-11-19T13:44:57.965Z,5.70
2017-11-19T13:47:26.317Z,5.60
2017-11-19T13:49:53.886Z,5.60
2017-11-19T13:52:21.469Z,5.70
2017-11-19T13:54:49.798Z,6.30
2017-11-19T13:57:17.393Z,6.30
2017-11-19T13:59:45.057Z,6.50
2017-11-19T14:02:12.652Z,6.80
2017-11-19T14:04:40.213Z,6.80
2017-11-19T14:07:07.955Z,7.00
2017-11-19T14:09:36.835Z,7.10
2017-11-19T14:12:04.396Z,6.90
2017-11-19T14:14:32.057Z,6.80
2017-11-19T14:17:00.385Z,6.50
2017-11-19T14:19:27.970Z,6.50
2017-11-19T14:21:55.540Z,6.30
2017-11-19T14:24:23.127Z,6.10
2017-11-19T14:26:51.463Z,5.70
2017-11-19T14:29:19.063Z,5.70
2017-11-19T14:31:47.500Z,5.60
2017-11-19T14:34:15.405Z,5.60
2017-11-19T14:36:43.729Z,5.40
2017-11-19T14:39:11.349Z,5.30
2017-11-19T14:41:39.714Z,5.20
2017-11-19T14:44:07.268Z,5.20
2017-11-19T14:46:35.900Z,5.10
2017-11-19T14:49:04.229Z,5.00
2017-11-19T14:51:31.821Z,5.00
2017-11-19T14:54:00.149Z,4.90
2017-11-19T14:56:27.733Z,4.90
2017-11-19T14:58:55.297Z,4.80
2017-11-19T15:01:22.973Z,4.70
2017-11-19T15:03:50.542Z,4.50
2017-11-19T15:06:18.194Z,4.20
2017-11-19T15:08:45.765Z,4.10
2017-11-19T15:11:13.353Z,4.00
2017-11-19T15:13:40.918Z,3.90
2017-11-19T15:16:08.517Z,3.90
2017-11-19T15:18:36.509Z,3.80
2017-11-19T15:21:04.094Z,3.70
2017-11-19T15:23:31.670Z,3.60
2017-11-19T15:25:59.275Z,3.60
2017-11-19T15:28:26.841Z,3.50
2017-11-19T15:30:54.405Z,3.30
2017-11-19T15:33:21.998Z,3.30
2017-11-19T15:35:50.325Z,3.10
2017-11-19T15:38:17.920Z,3.10
2017-11-19T15:40:45.477Z,3.10
2017-11-19T15:43:13.065Z,3.10
2017-11-19T15:45:40.629Z,3.10
2017-11-19T15:48:08.225Z,3.10
2017-11-19T15:50:39.372Z,3.10
2017-11-19T15:53:06.958Z,3.10
2017-11-19T15:55:36.065Z,3.10
2017-11-19T15:58:04.445Z,3.10
2017-11-19T16:00:32.009Z,3.10
2017-11-19T16:03:00.581Z,3.20
2017-11-19T16:05:28.154Z,3.20
2017-11-19T16:07:56.490Z,3.20
2017-11-19T16:10:24.078Z,3.20
2017-11-19T16:12:51.633Z,3.20
2017-11-19T16:15:19.301Z,3.20
2017-11-19T16:17:46.982Z,3.20
2017-11-19T16:20:15.343Z,3.30
2017-11-19T16:22:42.914Z,3.20
2017-11-19T16:25:10.497Z,3.30
2017-11-19T16:27:38.830Z,3.30
2017-11-19T16:30:06.421Z,3.30
2017-11-19T16:32:35.674Z,3.20
2017-11-19T16:35:03.276Z,3.20
2017-11-19T16:37:30.845Z,3.20
2017-11-19T16:39:59.198Z,3.30
2017-11-19T16:42:26.769Z,3.30
2017-11-19T16:44:54.373Z,3.20
2017-11-19T16:47:21.997Z,3.10
2017-11-19T16:49:49.613Z,3.10
2017-11-19T16:52:17.174Z,3.00
2017-11-19T16:54:44.757Z,3.00
2017-11-19T16:57:12.317Z,3.10
2017-11-19T16:59:39.952Z,3.10
2017-11-19T17:02:07.561Z,3.10
2017-11-19T17:04:36.754Z,3.00
2017-11-19T17:07:04.321Z,3.00
2017-11-19T17:09:31.909Z,3.00
2017-11-19T17:12:00.246Z,3.00
2017-11-19T17:14:27.829Z,3.00
2017-11-19T17:16:56.485Z,3.00
2017-11-19T17:19:24.069Z,3.00
2017-11-19T17:21:52.403Z,3.20
2017-11-19T17:24:19.985Z,3.20
2017-11-19T17:26:47.549Z,3.30
2017-11-19T17:29:15.493Z,3.40
2017-11-19T17:31:43.054Z,3.50
2017-11-19T17:34:10.621Z,3.50
2017-11-19T17:36:38.225Z,3.60
2017-11-19T17:39:05.798Z,3.60
2017-11-19T17:41:35.078Z,3.60
2017-11-19T17:44:02.646Z,3.60
2017-11-19T17:46:30.233Z,3.60
2017-11-19T17:48:57.809Z,3.60
2017-11-19T17:51:25.393Z,3.60
2017-11-19T17:53:52.959Z,3.60
2017-11-19T17:56:20.549Z,3.60
2017-11-19T17:58:48.114Z,3.60
2017-11-19T18:01:15.678Z,3.60
2017-11-19T18:03:44.046Z,3.60
2017-11-19T18:06:13.121Z,3.60
2017-11-19T18:08:41.109Z,3.60
2017-11-19T18:11:08.664Z,3.70
2017-11-19T18:13:37.868Z,3.70
2017-11-19T18:16:05.448Z,3.70
2017-11-19T18:18:33.772Z,3.70
2017-11-19T18:21:01.370Z,3.70
2017-11-19T18:23:28.932Z,3.80
2017-11-19T18:25:56.575Z,3.80
2017-11-19T18:28:25.653Z,4.00
2017-11-19T18:30:53.248Z,4.00
2017-11-19T18:33:20.913Z,4.00
2017-11-19T18:35:49.150Z,4.00
2017-11-19T18:38:16.770Z,4.00
2017-11-19T18:40:44.413Z,4.00
2017-11-19T18:43:12.074Z,4.00
2017-11-19T18:45:39.640Z,4.00
2017-11-19T18:48:07.226Z,4.00
2017-11-19T18:50:36.096Z,3.90
2017-11-19T18:53:03.853Z,3.90
2017-11-19T18:55:31.414Z,3.90
2017-11-19T18:57:58.975Z,3.90
2017-11-19T19:00:26.560Z,3.90
2017-11-19T19:02:54.885Z,3.90
2017-11-19T19:05:22.473Z,3.90
2017-11-19T19:07:50.796Z,3.90
2017-11-19T19:10:18.376Z,3.90
2017-11-19T19:12:45.944Z,3.90
2017-11-19T19:15:13.532Z,3.90
2017-11-19T19:17:41.101Z,3.90
2017-11-19T19:20:08.761Z,3.90
2017-11-19T19:22:38.541Z,3.70
2017-11-19T19:25:06.133Z,3.60
2017-11-19T19:27:33.700Z,3.60
2017-11-19T19:30:01.293Z,3.60
2017-11-19T19:32:28.857Z,3.60
2017-11-19T19:34:56.473Z,3.50
2017-11-19T19:37:24.033Z,3.50
2017-11-19T19:39:53.125Z,3.50
2017-11-19T19:42:20.689Z,3.50
2017-11-19T19:44:48.354Z,3.50
2017-11-19T19:47:15.921Z,3.40
2017-11-19T19:49:44.253Z,3.40
2017-11-19T19:52:11.837Z,3.40
2017-11-19T19:54:39.421Z,3.40
2017-11-19T19:57:08.489Z,3.40
2017-11-19T19:59:36.993Z,3.40
2017-11-19T20:02:04.554Z,3.40
2017-11-19T20:04:33.648Z,3.40
2017-11-19T20:07:01.206Z,3.40
2017-11-19T20:09:28.802Z,3.40
2017-11-19T20:11:57.132Z,3.30
2017-11-19T20:14:24.721Z,3.30
2017-11-19T20:16:52.297Z,3.30
2017-11-19T20:19:20.661Z,3.40
2017-11-19T20:21:48.988Z,3.40
2017-11-19T20:24:16.545Z,3.40
2017-11-19T20:26:44.193Z,3.40
2017-11-19T20:29:11.757Z,3.40
2017-11-19T20:31:39.386Z,3.40
2017-11-19T20:34:07.719Z,3.60
2017-11-19T20:36:37.636Z,3.60
2017-11-19T20:39:05.216Z,3.50
2017-11-19T20:41:32.925Z,3.50
2017-11-19T20:44:00.490Z,3.50
2017-11-19T20:46:28.055Z,3.50
2017-11-19T20:48:55.657Z,3.40
2017-11-19T20:51:23.237Z,3.40
2017-11-19T20:53:50.824Z,3.40
2017-11-19T20:56:19.148Z,3.40
2017-11-19T20:58:46.742Z,3.40
2017-11-19T21:01:14.396Z,3.40
2017-11-19T21:03:42.758Z,3.30
2017-11-19T21:06:10.625Z,3.30
2017-11-19T21:08:38.213Z,3.20
2017-11-19T21:11:05.772Z,3.10
2017-11-19T21:13:35.784Z,3.10
2017-11-19T21:16:03.733Z,3.00
2017-11-19T21:18:31.317Z,3.10
2017-11-19T21:20:58.885Z,3.10
2017-11-19T21:23:26.465Z,3.10
2017-11-19T21:25:54.817Z,3.00
2017-11-19T21:28:23.142Z,2.90
2017-11-19T21:30:50.773Z,2.90
2017-11-19T21:33:19.097Z,2.90
2017-11-19T21:35:46.679Z,2.90
2017-11-19T21:38:14.257Z,2.90
2017-11-19T21:40:41.842Z,3.00
2017-11-19T21:43:10.193Z,3.10
2017-11-19T21:45:37.785Z,3.10
2017-11-19T21:48:06.113Z,3.20
2017-11-19T21:50:33.705Z,3.20
2017-11-19T21:53:01.264Z,3.20
2017-11-19T21:55:28.845Z,3.20
2017-11-19T21:57:57.400Z,3.10
2017-11-19T22:00:24.963Z,3.10
2017-11-19T22:02:52.526Z,3.10
2017-11-19T22:05:20.113Z,3.10
2017-11-19T22:07:48.437Z,3.20
2017-11-19T22:10:16.022Z,3.10
2017-11-19T22:12:43.585Z,3.10
2017-11-19T22:15:11.168Z,3.10
2017-11-19T22:17:39.493Z,3.10
2017-11-19T22:20:07.085Z,3.10
2017-11-19T22:22:35.880Z,3.10
2017-11-19T22:25:03.464Z,3.10
2017-11-19T22:27:31.792Z,3.00
2017-11-19T22:29:59.349Z,3.00
2017-11-19T22:32:27.729Z,2.90
2017-11-19T22:34:55.289Z,2.90
2017-11-19T22:37:22.885Z,2.80
2017-11-19T22:39:51.211Z,2.80
2017-11-19T22:42:18.814Z,2.80
2017-11-19T22:44:47.165Z,2.70
2017-11-19T22:47:14.724Z,2.70
2017-11-19T22:49:42.309Z,2.70
2017-11-19T22:52:09.872Z,2.70
2017-11-19T22:54:38.849Z,2.70
2017-11-19T22:57:06.413Z,2.70
2017-11-19T22:59:33.997Z,2.70
2017-11-19T23:02:02.369Z,2.70
2017-11-19T23:04:29.954Z,2.70
2017-11-19T23:06:58.309Z,2.70
2017-11-19T23:09:25.968Z,2.70
2017-11-19T23:11:53.533Z,2.70
2017-11-19T23:14:21.188Z,2.80
2017-11-19T23:16:48.748Z,2.80
2017-11-19T23:19:16.313Z,2.80
2017-11-19T23:21:43.902Z,2.80
2017-11-19T23:24:12.240Z,2.70
2017-11-19T23:26:39.918Z,2.70
2017-11-19T23:29:07.481Z,2.60
2017-11-19T23:31:36.880Z,2.60
2017-11-19T23:34:04.923Z,2.50
2017-11-19T23:36:32.513Z,2.50
2017-11-19T23:39:00.074Z,2.50
2017-11-19T23:41:27.666Z,2.60
2017-11-19T23:43:55.229Z,2.60
2017-11-19T23:46:22.845Z,2.60
2017-11-19T23:48:50.413Z,2.60
2017-11-19T23:51:17.973Z,2.60
2017-11-19T23:53:45.557Z,2.60
2017-11-19T23:56:13.144Z,2.60
2017-11-19T23:58:40.737Z,2.60
